sensor_id;sensor_type;location;lat;lon;timestamp;P1;durP1;ratioP1;P2;durP2;ratioP2
57627;SDS011;43451;49.060;10.616;2023-02-28T00:01:21;5.80;;;3.25;;
57627;SDS011;43451;49.060;10.616;2023-02-28T00:03:47;6.38;;;3.72;;
57627;SDS011;43451;49.060;10.616;2023-02-28T00:06:13;6.03;;;3.67;;
57627;SDS011;43451;49.060;10.616;2023-02-28T00:08:38;7.68;;;3.65;;
57627;SDS011;43451;49.060;10.616;2023-02-28T00:11:08;6.85;;;3.78;;
57627;SDS011;43451;49.060;10.616;2023-02-28T00:13:36;10.32;;;4.00;;
57627;SDS011;43451;49.060;10.616;2023-02-28T00:16:07;7.25;;;3.47;;
57627;SDS011;43451;49.060;10.616;2023-02-28T00:18:34;5.95;;;3.47;;
57627;SDS011;43451;49.060;10.616;2023-02-28T00:21:00;5.22;;;3.40;;
57627;SDS011;43451;49.060;10.616;2023-02-28T00:23:26;6.30;;;3.58;;
57627;SDS011;43451;49.060;10.616;2023-02-28T00:25:52;4.70;;;2.97;;
57627;SDS011;43451;49.060;10.616;2023-02-28T00:28:19;5.70;;;3.60;;
57627;SDS011;43451;49.060;10.616;2023-02-28T00:30:44;5.65;;;3.30;;
57627;SDS011;43451;49.060;10.616;2023-02-28T00:33:10;6.05;;;3.50;;
57627;SDS011;43451;49.060;10.616;2023-02-28T00:35:35;8.88;;;3.83;;
57627;SDS011;43451;49.060;10.616;2023-02-28T00:38:01;6.60;;;3.78;;
57627;SDS011;43451;49.060;10.616;2023-02-28T00:40:27;5.88;;;3.80;;
57627;SDS011;43451;49.060;10.616;2023-02-28T00:42:53;6.72;;;3.60;;
57627;SDS011;43451;49.060;10.616;2023-02-28T00:45:19;9.43;;;3.70;;
57627;SDS011;43451;49.060;10.616;2023-02-28T00:47:44;6.90;;;3.72;;
57627;SDS011;43451;49.060;10.616;2023-02-28T00:50:11;6.40;;;3.47;;
57627;SDS011;43451;49.060;10.616;2023-02-28T00:52:37;7.95;;;3.80;;
57627;SDS011;43451;49.060;10.616;2023-02-28T00:55:03;6.20;;;3.50;;
57627;SDS011;43451;49.060;10.616;2023-02-28T00:57:29;6.82;;;3.78;;
57627;SDS011;43451;49.060;10.616;2023-02-28T00:59:55;6.07;;;3.67;;
57627;SDS011;43451;49.060;10.616;2023-02-28T01:02:21;6.15;;;3.60;;
57627;SDS011;43451;49.060;10.616;2023-02-28T01:04:47;6.55;;;3.67;;
57627;SDS011;43451;49.060;10.616;2023-02-28T01:07:12;5.43;;;3.25;;
57627;SDS011;43451;49.060;10.616;2023-02-28T01:09:39;7.78;;;3.78;;
57627;SDS011;43451;49.060;10.616;2023-02-28T01:12:06;7.07;;;3.85;;
57627;SDS011;43451;49.060;10.616;2023-02-28T01:14:32;6.57;;;3.72;;
57627;SDS011;43451;49.060;10.616;2023-02-28T01:16:58;7.25;;;4.00;;
57627;SDS011;43451;49.060;10.616;2023-02-28T01:19:23;6.47;;;3.75;;
57627;SDS011;43451;49.060;10.616;2023-02-28T01:21:48;7.18;;;3.63;;
57627;SDS011;43451;49.060;10.616;2023-02-28T01:24:14;6.15;;;3.50;;
57627;SDS011;43451;49.060;10.616;2023-02-28T01:26:39;6.05;;;3.60;;
57627;SDS011;43451;49.060;10.616;2023-02-28T01:29:05;6.75;;;3.47;;
57627;SDS011;43451;49.060;10.616;2023-02-28T01:31:30;6.32;;;3.90;;
57627;SDS011;43451;49.060;10.616;2023-02-28T01:33:56;7.15;;;3.70;;
57627;SDS011;43451;49.060;10.616;2023-02-28T01:36:22;6.43;;;3.92;;
57627;SDS011;43451;49.060;10.616;2023-02-28T01:38:49;6.60;;;3.90;;
57627;SDS011;43451;49.060;10.616;2023-02-28T01:41:19;6.28;;;3.80;;
57627;SDS011;43451;49.060;10.616;2023-02-28T01:46:10;7.45;;;3.90;;
57627;SDS011;43451;49.060;10.616;2023-02-28T01:48:37;5.93;;;3.63;;
57627;SDS011;43451;49.060;10.616;2023-02-28T01:51:11;7.07;;;3.80;;
57627;SDS011;43451;49.060;10.616;2023-02-28T01:53:45;8.13;;;4.32;;
57627;SDS011;43451;49.060;10.616;2023-02-28T01:56:19;6.83;;;3.80;;
57627;SDS011;43451;49.060;10.616;2023-02-28T01:58:48;10.45;;;4.13;;
57627;SDS011;43451;49.060;10.616;2023-02-28T02:01:16;7.57;;;4.05;;
57627;SDS011;43451;49.060;10.616;2023-02-28T02:03:49;6.35;;;3.65;;
57627;SDS011;43451;49.060;10.616;2023-02-28T02:06:30;6.80;;;3.83;;
57627;SDS011;43451;49.060;10.616;2023-02-28T02:09:02;7.93;;;4.30;;
57627;SDS011;43451;49.060;10.616;2023-02-28T02:11:28;8.52;;;4.10;;
57627;SDS011;43451;49.060;10.616;2023-02-28T02:16:51;7.47;;;4.18;;
57627;SDS011;43451;49.060;10.616;2023-02-28T02:25:21;6.65;;;4.00;;
57627;SDS011;43451;49.060;10.616;2023-02-28T02:33:57;8.98;;;4.43;;
57627;SDS011;43451;49.060;10.616;2023-02-28T02:36:42;6.45;;;3.92;;
57627;SDS011;43451;49.060;10.616;2023-02-28T02:42:14;8.02;;;4.10;;
57627;SDS011;43451;49.060;10.616;2023-02-28T02:44:55;8.02;;;4.30;;
57627;SDS011;43451;49.060;10.616;2023-02-28T02:47:29;7.85;;;4.10;;
57627;SDS011;43451;49.060;10.616;2023-02-28T02:49:57;6.32;;;4.13;;
57627;SDS011;43451;49.060;10.616;2023-02-28T02:52:30;7.95;;;4.18;;
57627;SDS011;43451;49.060;10.616;2023-02-28T02:55:01;7.57;;;4.25;;
57627;SDS011;43451;49.060;10.616;2023-02-28T02:57:48;7.63;;;4.38;;
57627;SDS011;43451;49.060;10.616;2023-02-28T03:00:18;8.13;;;4.32;;
57627;SDS011;43451;49.060;10.616;2023-02-28T03:02:48;7.43;;;4.05;;
57627;SDS011;43451;49.060;10.616;2023-02-28T03:05:19;6.72;;;4.15;;
57627;SDS011;43451;49.060;10.616;2023-02-28T03:07:48;8.65;;;4.68;;
57627;SDS011;43451;49.060;10.616;2023-02-28T03:10:27;10.77;;;4.35;;
57627;SDS011;43451;49.060;10.616;2023-02-28T03:19:33;7.70;;;4.15;;
57627;SDS011;43451;49.060;10.616;2023-02-28T03:21:43;7.65;;;4.43;;
57627;SDS011;43451;49.060;10.616;2023-02-28T03:24:19;8.55;;;4.25;;
57627;SDS011;43451;49.060;10.616;2023-02-28T03:26:47;7.60;;;4.40;;
57627;SDS011;43451;49.060;10.616;2023-02-28T03:29:23;7.40;;;4.10;;
57627;SDS011;43451;49.060;10.616;2023-02-28T03:32:08;7.93;;;4.30;;
57627;SDS011;43451;49.060;10.616;2023-02-28T03:34:47;7.60;;;4.00;;
57627;SDS011;43451;49.060;10.616;2023-02-28T03:37:20;9.30;;;4.68;;
57627;SDS011;43451;49.060;10.616;2023-02-28T03:39:51;9.98;;;4.97;;
57627;SDS011;43451;49.060;10.616;2023-02-28T03:42:24;9.98;;;4.70;;
57627;SDS011;43451;49.060;10.616;2023-02-28T03:45:00;9.25;;;5.20;;
57627;SDS011;43451;49.060;10.616;2023-02-28T03:49:59;8.90;;;4.57;;
57627;SDS011;43451;49.060;10.616;2023-02-28T03:52:31;8.80;;;4.80;;
57627;SDS011;43451;49.060;10.616;2023-02-28T03:55:00;9.93;;;4.65;;
57627;SDS011;43451;49.060;10.616;2023-02-28T04:00:50;8.82;;;4.35;;
57627;SDS011;43451;49.060;10.616;2023-02-28T04:03:22;10.75;;;4.93;;
57627;SDS011;43451;49.060;10.616;2023-02-28T04:05:54;9.68;;;5.30;;
57627;SDS011;43451;49.060;10.616;2023-02-28T04:08:22;10.95;;;5.10;;
57627;SDS011;43451;49.060;10.616;2023-02-28T04:10:51;9.43;;;4.78;;
57627;SDS011;43451;49.060;10.616;2023-02-28T04:13:21;9.70;;;4.95;;
57627;SDS011;43451;49.060;10.616;2023-02-28T04:15:47;9.32;;;5.00;;
57627;SDS011;43451;49.060;10.616;2023-02-28T04:18:12;10.60;;;4.82;;
57627;SDS011;43451;49.060;10.616;2023-02-28T04:20:38;10.40;;;5.18;;
57627;SDS011;43451;49.060;10.616;2023-02-28T04:23:03;15.13;;;5.55;;
57627;SDS011;43451;49.060;10.616;2023-02-28T04:25:29;12.00;;;5.53;;
57627;SDS011;43451;49.060;10.616;2023-02-28T04:27:54;11.48;;;5.50;;
57627;SDS011;43451;49.060;10.616;2023-02-28T04:30:20;9.93;;;5.13;;
57627;SDS011;43451;49.060;10.616;2023-02-28T04:32:46;8.52;;;4.70;;
57627;SDS011;43451;49.060;10.616;2023-02-28T04:35:12;9.95;;;4.72;;
57627;SDS011;43451;49.060;10.616;2023-02-28T04:37:37;9.88;;;5.40;;
57627;SDS011;43451;49.060;10.616;2023-02-28T04:40:03;9.13;;;4.95;;
57627;SDS011;43451;49.060;10.616;2023-02-28T04:42:29;9.73;;;5.40;;
57627;SDS011;43451;49.060;10.616;2023-02-28T04:45:00;9.75;;;5.55;;
57627;SDS011;43451;49.060;10.616;2023-02-28T04:47:29;10.93;;;5.30;;
57627;SDS011;43451;49.060;10.616;2023-02-28T04:49:54;9.82;;;5.18;;
57627;SDS011;43451;49.060;10.616;2023-02-28T04:52:20;11.20;;;5.47;;
57627;SDS011;43451;49.060;10.616;2023-02-28T04:54:45;32.45;;;14.00;;
57627;SDS011;43451;49.060;10.616;2023-02-28T04:57:11;15.35;;;8.23;;
57627;SDS011;43451;49.060;10.616;2023-02-28T04:59:36;13.15;;;6.50;;
57627;SDS011;43451;49.060;10.616;2023-02-28T05:02:02;11.82;;;6.03;;
57627;SDS011;43451;49.060;10.616;2023-02-28T05:04:31;15.10;;;7.72;;
57627;SDS011;43451;49.060;10.616;2023-02-28T05:06:59;14.75;;;7.30;;
57627;SDS011;43451;49.060;10.616;2023-02-28T05:09:25;13.40;;;7.03;;
57627;SDS011;43451;49.060;10.616;2023-02-28T05:11:51;10.95;;;6.03;;
57627;SDS011;43451;49.060;10.616;2023-02-28T05:14:16;15.43;;;7.50;;
57627;SDS011;43451;49.060;10.616;2023-02-28T05:16:42;13.82;;;8.15;;
57627;SDS011;43451;49.060;10.616;2023-02-28T05:19:07;13.93;;;7.00;;
57627;SDS011;43451;49.060;10.616;2023-02-28T05:21:40;14.70;;;6.95;;
57627;SDS011;43451;49.060;10.616;2023-02-28T05:24:13;12.23;;;7.03;;
57627;SDS011;43451;49.060;10.616;2023-02-28T05:26:39;15.02;;;7.22;;
57627;SDS011;43451;49.060;10.616;2023-02-28T05:29:06;10.38;;;5.72;;
57627;SDS011;43451;49.060;10.616;2023-02-28T05:31:31;21.52;;;12.05;;
57627;SDS011;43451;49.060;10.616;2023-02-28T05:33:57;12.13;;;6.97;;
57627;SDS011;43451;49.060;10.616;2023-02-28T05:36:23;12.25;;;6.22;;
57627;SDS011;43451;49.060;10.616;2023-02-28T05:38:49;9.27;;;5.68;;
57627;SDS011;43451;49.060;10.616;2023-02-28T05:41:16;16.95;;;8.27;;
57627;SDS011;43451;49.060;10.616;2023-02-28T05:46:10;14.40;;;5.65;;
57627;SDS011;43451;49.060;10.616;2023-02-28T05:48:36;18.05;;;10.50;;
57627;SDS011;43451;49.060;10.616;2023-02-28T05:51:03;13.20;;;6.30;;
57627;SDS011;43451;49.060;10.616;2023-02-28T05:53:29;12.07;;;6.25;;
57627;SDS011;43451;49.060;10.616;2023-02-28T05:55:56;9.30;;;5.70;;
57627;SDS011;43451;49.060;10.616;2023-02-28T05:58:21;12.27;;;6.20;;
57627;SDS011;43451;49.060;10.616;2023-02-28T06:00:47;12.70;;;6.55;;
57627;SDS011;43451;49.060;10.616;2023-02-28T06:03:13;10.68;;;5.82;;
57627;SDS011;43451;49.060;10.616;2023-02-28T06:05:38;11.32;;;6.18;;
57627;SDS011;43451;49.060;10.616;2023-02-28T06:08:04;13.80;;;6.43;;
57627;SDS011;43451;49.060;10.616;2023-02-28T06:10:32;16.70;;;6.78;;
57627;SDS011;43451;49.060;10.616;2023-02-28T06:13:02;9.82;;;6.05;;
57627;SDS011;43451;49.060;10.616;2023-02-28T06:15:28;10.55;;;6.10;;
57627;SDS011;43451;49.060;10.616;2023-02-28T06:17:55;14.73;;;7.55;;
57627;SDS011;43451;49.060;10.616;2023-02-28T06:20:23;12.95;;;6.80;;
57627;SDS011;43451;49.060;10.616;2023-02-28T06:22:51;13.45;;;6.57;;
57627;SDS011;43451;49.060;10.616;2023-02-28T06:25:16;12.63;;;6.63;;
57627;SDS011;43451;49.060;10.616;2023-02-28T06:27:42;14.15;;;6.68;;
57627;SDS011;43451;49.060;10.616;2023-02-28T06:30:09;12.05;;;6.30;;
57627;SDS011;43451;49.060;10.616;2023-02-28T06:32:35;13.07;;;7.07;;
57627;SDS011;43451;49.060;10.616;2023-02-28T06:35:01;13.63;;;7.40;;
57627;SDS011;43451;49.060;10.616;2023-02-28T06:37:27;13.52;;;7.05;;
57627;SDS011;43451;49.060;10.616;2023-02-28T06:39:53;13.18;;;7.03;;
57627;SDS011;43451;49.060;10.616;2023-02-28T06:42:20;19.50;;;7.90;;
57627;SDS011;43451;49.060;10.616;2023-02-28T06:44:47;13.57;;;6.78;;
57627;SDS011;43451;49.060;10.616;2023-02-28T06:47:13;15.75;;;7.60;;
57627;SDS011;43451;49.060;10.616;2023-02-28T06:49:38;16.10;;;7.78;;
57627;SDS011;43451;49.060;10.616;2023-02-28T06:52:04;14.73;;;7.47;;
57627;SDS011;43451;49.060;10.616;2023-02-28T06:54:30;16.88;;;7.57;;
57627;SDS011;43451;49.060;10.616;2023-02-28T06:56:57;12.88;;;7.53;;
57627;SDS011;43451;49.060;10.616;2023-02-28T06:59:23;13.02;;;7.38;;
57627;SDS011;43451;49.060;10.616;2023-02-28T07:01:48;14.15;;;8.00;;
57627;SDS011;43451;49.060;10.616;2023-02-28T07:04:14;16.17;;;8.13;;
57627;SDS011;43451;49.060;10.616;2023-02-28T07:06:39;18.52;;;7.53;;
57627;SDS011;43451;49.060;10.616;2023-02-28T07:09:05;16.92;;;8.70;;
57627;SDS011;43451;49.060;10.616;2023-02-28T07:11:31;18.65;;;9.52;;
57627;SDS011;43451;49.060;10.616;2023-02-28T07:13:57;15.95;;;7.85;;
57627;SDS011;43451;49.060;10.616;2023-02-28T07:16:23;19.70;;;8.93;;
57627;SDS011;43451;49.060;10.616;2023-02-28T07:18:49;22.50;;;10.18;;
57627;SDS011;43451;49.060;10.616;2023-02-28T07:21:17;15.77;;;8.18;;
57627;SDS011;43451;49.060;10.616;2023-02-28T07:23:42;15.98;;;8.23;;
57627;SDS011;43451;49.060;10.616;2023-02-28T07:26:13;25.33;;;11.35;;
57627;SDS011;43451;49.060;10.616;2023-02-28T07:28:44;30.63;;;17.35;;
57627;SDS011;43451;49.060;10.616;2023-02-28T07:31:11;18.08;;;11.07;;
57627;SDS011;43451;49.060;10.616;2023-02-28T07:33:39;17.55;;;7.78;;
57627;SDS011;43451;49.060;10.616;2023-02-28T07:36:09;17.10;;;8.68;;
57627;SDS011;43451;49.060;10.616;2023-02-28T07:38:40;16.63;;;8.90;;
57627;SDS011;43451;49.060;10.616;2023-02-28T07:41:09;19.92;;;10.10;;
57627;SDS011;43451;49.060;10.616;2023-02-28T07:43:34;15.68;;;8.18;;
57627;SDS011;43451;49.060;10.616;2023-02-28T07:46:04;15.77;;;7.72;;
57627;SDS011;43451;49.060;10.616;2023-02-28T07:48:30;16.45;;;8.02;;
57627;SDS011;43451;49.060;10.616;2023-02-28T07:50:56;15.60;;;8.00;;
57627;SDS011;43451;49.060;10.616;2023-02-28T07:53:23;13.05;;;7.32;;
57627;SDS011;43451;49.060;10.616;2023-02-28T07:55:48;13.38;;;7.47;;
57627;SDS011;43451;49.060;10.616;2023-02-28T07:58:14;13.30;;;8.18;;
57627;SDS011;43451;49.060;10.616;2023-02-28T08:00:39;12.65;;;7.45;;
57627;SDS011;43451;49.060;10.616;2023-02-28T08:03:05;19.42;;;8.68;;
57627;SDS011;43451;49.060;10.616;2023-02-28T08:05:30;14.63;;;8.48;;
57627;SDS011;43451;49.060;10.616;2023-02-28T08:07:56;14.77;;;8.02;;
57627;SDS011;43451;49.060;10.616;2023-02-28T08:10:22;15.05;;;7.70;;
57627;SDS011;43451;49.060;10.616;2023-02-28T08:12:49;13.68;;;7.82;;
57627;SDS011;43451;49.060;10.616;2023-02-28T08:15:14;14.10;;;8.15;;
57627;SDS011;43451;49.060;10.616;2023-02-28T08:17:40;13.32;;;7.32;;
57627;SDS011;43451;49.060;10.616;2023-02-28T08:20:05;14.00;;;8.13;;
57627;SDS011;43451;49.060;10.616;2023-02-28T08:22:32;14.35;;;7.22;;
57627;SDS011;43451;49.060;10.616;2023-02-28T08:24:57;16.25;;;8.25;;
57627;SDS011;43451;49.060;10.616;2023-02-28T08:27:23;15.10;;;7.93;;
57627;SDS011;43451;49.060;10.616;2023-02-28T08:29:48;14.43;;;8.27;;
57627;SDS011;43451;49.060;10.616;2023-02-28T08:32:14;13.55;;;7.82;;
57627;SDS011;43451;49.060;10.616;2023-02-28T08:34:39;21.45;;;13.93;;
57627;SDS011;43451;49.060;10.616;2023-02-28T08:37:05;24.17;;;13.63;;
57627;SDS011;43451;49.060;10.616;2023-02-28T08:39:33;18.73;;;9.63;;
57627;SDS011;43451;49.060;10.616;2023-02-28T08:41:59;13.98;;;8.13;;
57627;SDS011;43451;49.060;10.616;2023-02-28T08:44:25;14.95;;;8.02;;
57627;SDS011;43451;49.060;10.616;2023-02-28T08:46:52;14.43;;;7.38;;
57627;SDS011;43451;49.060;10.616;2023-02-28T08:49:17;13.93;;;7.05;;
57627;SDS011;43451;49.060;10.616;2023-02-28T08:51:44;13.55;;;7.05;;
57627;SDS011;43451;49.060;10.616;2023-02-28T08:54:10;17.17;;;8.63;;
57627;SDS011;43451;49.060;10.616;2023-02-28T08:56:42;14.57;;;8.07;;
57627;SDS011;43451;49.060;10.616;2023-02-28T08:59:08;16.83;;;9.50;;
57627;SDS011;43451;49.060;10.616;2023-02-28T09:01:34;15.57;;;8.27;;
57627;SDS011;43451;49.060;10.616;2023-02-28T09:04:01;15.15;;;8.18;;
57627;SDS011;43451;49.060;10.616;2023-02-28T09:06:27;15.27;;;8.93;;
57627;SDS011;43451;49.060;10.616;2023-02-28T09:08:55;14.52;;;8.25;;
57627;SDS011;43451;49.060;10.616;2023-02-28T09:11:23;12.65;;;7.80;;
57627;SDS011;43451;49.060;10.616;2023-02-28T09:13:48;13.35;;;7.93;;
57627;SDS011;43451;49.060;10.616;2023-02-28T09:16:15;11.95;;;7.47;;
57627;SDS011;43451;49.060;10.616;2023-02-28T09:18:42;14.52;;;7.93;;
57627;SDS011;43451;49.060;10.616;2023-02-28T09:21:09;19.08;;;9.50;;
57627;SDS011;43451;49.060;10.616;2023-02-28T09:23:40;14.00;;;7.68;;
57627;SDS011;43451;49.060;10.616;2023-02-28T09:26:06;15.35;;;8.25;;
57627;SDS011;43451;49.060;10.616;2023-02-28T09:28:32;12.98;;;7.35;;
57627;SDS011;43451;49.060;10.616;2023-02-28T09:30:57;13.20;;;7.60;;
57627;SDS011;43451;49.060;10.616;2023-02-28T09:33:24;12.88;;;7.18;;
57627;SDS011;43451;49.060;10.616;2023-02-28T09:35:50;12.25;;;7.75;;
57627;SDS011;43451;49.060;10.616;2023-02-28T09:38:22;14.20;;;7.72;;
57627;SDS011;43451;49.060;10.616;2023-02-28T09:40:51;12.05;;;7.43;;
57627;SDS011;43451;49.060;10.616;2023-02-28T09:43:21;12.25;;;7.80;;
57627;SDS011;43451;49.060;10.616;2023-02-28T09:48:41;11.18;;;7.30;;
57627;SDS011;43451;49.060;10.616;2023-02-28T09:53:42;10.85;;;6.78;;
57627;SDS011;43451;49.060;10.616;2023-02-28T09:56:09;13.52;;;7.43;;
57627;SDS011;43451;49.060;10.616;2023-02-28T09:58:44;13.82;;;7.32;;
57627;SDS011;43451;49.060;10.616;2023-02-28T10:06:50;12.48;;;7.20;;
57627;SDS011;43451;49.060;10.616;2023-02-28T10:09:26;14.13;;;8.18;;
57627;SDS011;43451;49.060;10.616;2023-02-28T10:11:56;13.35;;;7.65;;
57627;SDS011;43451;49.060;10.616;2023-02-28T10:14:29;14.45;;;7.78;;
57627;SDS011;43451;49.060;10.616;2023-02-28T10:16:58;12.45;;;7.18;;
57627;SDS011;43451;49.060;10.616;2023-02-28T10:19:34;13.25;;;8.00;;
57627;SDS011;43451;49.060;10.616;2023-02-28T10:26:52;13.30;;;7.53;;
57627;SDS011;43451;49.060;10.616;2023-02-28T10:29:24;12.40;;;7.85;;
57627;SDS011;43451;49.060;10.616;2023-02-28T10:31:50;13.55;;;7.85;;
57627;SDS011;43451;49.060;10.616;2023-02-28T10:34:17;11.10;;;7.50;;
57627;SDS011;43451;49.060;10.616;2023-02-28T10:36:42;11.95;;;7.32;;
57627;SDS011;43451;49.060;10.616;2023-02-28T10:42:03;14.40;;;7.72;;
57627;SDS011;43451;49.060;10.616;2023-02-28T10:44:30;10.90;;;7.03;;
57627;SDS011;43451;49.060;10.616;2023-02-28T10:46:55;11.35;;;6.93;;
57627;SDS011;43451;49.060;10.616;2023-02-28T10:49:28;11.95;;;7.60;;
57627;SDS011;43451;49.060;10.616;2023-02-28T10:51:55;14.13;;;7.70;;
57627;SDS011;43451;49.060;10.616;2023-02-28T10:54:31;12.90;;;7.63;;
57627;SDS011;43451;49.060;10.616;2023-02-28T10:59:45;12.45;;;7.63;;
57627;SDS011;43451;49.060;10.616;2023-02-28T11:02:49;15.02;;;7.63;;
57627;SDS011;43451;49.060;10.616;2023-02-28T11:08:15;37.58;;;15.23;;
57627;SDS011;43451;49.060;10.616;2023-02-28T11:10:53;22.08;;;10.50;;
57627;SDS011;43451;49.060;10.616;2023-02-28T11:13:31;13.23;;;7.25;;
57627;SDS011;43451;49.060;10.616;2023-02-28T11:16:00;11.65;;;7.40;;
57627;SDS011;43451;49.060;10.616;2023-02-28T11:21:00;14.90;;;8.93;;
57627;SDS011;43451;49.060;10.616;2023-02-28T11:23:29;14.20;;;7.53;;
57627;SDS011;43451;49.060;10.616;2023-02-28T11:25:58;20.20;;;10.55;;
57627;SDS011;43451;49.060;10.616;2023-02-28T11:31:33;11.13;;;8.20;;
57627;SDS011;43451;49.060;10.616;2023-02-28T11:33:59;13.13;;;8.25;;
57627;SDS011;43451;49.060;10.616;2023-02-28T11:36:26;14.75;;;7.85;;
57627;SDS011;43451;49.060;10.616;2023-02-28T11:38:58;11.90;;;7.60;;
57627;SDS011;43451;49.060;10.616;2023-02-28T11:41:50;11.32;;;7.65;;
57627;SDS011;43451;49.060;10.616;2023-02-28T11:44:45;13.15;;;8.18;;
57627;SDS011;43451;49.060;10.616;2023-02-28T11:56:30;12.30;;;7.68;;
57627;SDS011;43451;49.060;10.616;2023-02-28T12:04:54;12.27;;;7.65;;
57627;SDS011;43451;49.060;10.616;2023-02-28T12:12:38;16.23;;;8.00;;
57627;SDS011;43451;49.060;10.616;2023-02-28T12:15:16;11.63;;;7.75;;
57627;SDS011;43451;49.060;10.616;2023-02-28T12:18:12;11.50;;;7.85;;
57627;SDS011;43451;49.060;10.616;2023-02-28T12:37:41;11.20;;;7.75;;
57627;SDS011;43451;49.060;10.616;2023-02-28T12:42:38;12.68;;;8.10;;
57627;SDS011;43451;49.060;10.616;2023-02-28T12:45:19;13.15;;;7.80;;
57627;SDS011;43451;49.060;10.616;2023-02-28T12:47:48;14.70;;;8.13;;
57627;SDS011;43451;49.060;10.616;2023-02-28T12:50:21;13.60;;;7.65;;
57627;SDS011;43451;49.060;10.616;2023-02-28T12:55:26;11.32;;;8.02;;
57627;SDS011;43451;49.060;10.616;2023-02-28T13:00:55;14.80;;;8.52;;
57627;SDS011;43451;49.060;10.616;2023-02-28T13:06:16;12.73;;;8.90;;
57627;SDS011;43451;49.060;10.616;2023-02-28T13:09:03;13.32;;;8.27;;
57627;SDS011;43451;49.060;10.616;2023-02-28T13:11:47;15.23;;;8.93;;
57627;SDS011;43451;49.060;10.616;2023-02-28T13:16:54;13.80;;;8.75;;
57627;SDS011;43451;49.060;10.616;2023-02-28T13:19:24;13.48;;;8.73;;
57627;SDS011;43451;49.060;10.616;2023-02-28T13:21:51;16.15;;;9.98;;
57627;SDS011;43451;49.060;10.616;2023-02-28T13:29:41;16.35;;;9.90;;
57627;SDS011;43451;49.060;10.616;2023-02-28T13:34:35;13.50;;;8.07;;
57627;SDS011;43451;49.060;10.616;2023-02-28T13:47:40;13.48;;;8.43;;
57627;SDS011;43451;49.060;10.616;2023-02-28T13:50:24;10.85;;;7.53;;
57627;SDS011;43451;49.060;10.616;2023-02-28T14:01:48;13.68;;;8.18;;
57627;SDS011;43451;49.060;10.616;2023-02-28T14:04:46;16.05;;;8.70;;
57627;SDS011;43451;49.060;10.616;2023-02-28T14:07:20;13.52;;;8.48;;
57627;SDS011;43451;49.060;10.616;2023-02-28T14:09:55;19.80;;;10.25;;
57627;SDS011;43451;49.060;10.616;2023-02-28T14:20:47;14.90;;;7.93;;
57627;SDS011;43451;49.060;10.616;2023-02-28T14:31:23;14.32;;;8.43;;
57627;SDS011;43451;49.060;10.616;2023-02-28T14:36:42;13.73;;;8.25;;
57627;SDS011;43451;49.060;10.616;2023-02-28T14:39:19;15.02;;;8.20;;
57627;SDS011;43451;49.060;10.616;2023-02-28T14:41:47;13.55;;;8.15;;
57627;SDS011;43451;49.060;10.616;2023-02-28T14:44:14;14.30;;;8.23;;
57627;SDS011;43451;49.060;10.616;2023-02-28T14:46:46;13.25;;;8.10;;
57627;SDS011;43451;49.060;10.616;2023-02-28T14:49:21;13.73;;;7.88;;
57627;SDS011;43451;49.060;10.616;2023-02-28T14:52:01;11.48;;;7.15;;
57627;SDS011;43451;49.060;10.616;2023-02-28T14:57:51;13.95;;;8.13;;
57627;SDS011;43451;49.060;10.616;2023-02-28T15:02:54;12.00;;;7.47;;
57627;SDS011;43451;49.060;10.616;2023-02-28T15:05:23;13.75;;;8.00;;
57627;SDS011;43451;49.060;10.616;2023-02-28T15:08:02;12.20;;;7.85;;
57627;SDS011;43451;49.060;10.616;2023-02-28T15:10:30;13.88;;;8.13;;
57627;SDS011;43451;49.060;10.616;2023-02-28T15:13:00;12.27;;;7.95;;
57627;SDS011;43451;49.060;10.616;2023-02-28T15:18:27;13.10;;;8.23;;
57627;SDS011;43451;49.060;10.616;2023-02-28T15:21:02;12.35;;;8.15;;
57627;SDS011;43451;49.060;10.616;2023-02-28T15:23:31;24.52;;;13.73;;
57627;SDS011;43451;49.060;10.616;2023-02-28T15:26:00;17.10;;;9.68;;
57627;SDS011;43451;49.060;10.616;2023-02-28T15:28:27;20.17;;;9.23;;
57627;SDS011;43451;49.060;10.616;2023-02-28T15:30:55;18.95;;;8.18;;
57627;SDS011;43451;49.060;10.616;2023-02-28T15:33:26;15.10;;;8.07;;
57627;SDS011;43451;49.060;10.616;2023-02-28T15:36:09;14.25;;;8.40;;
57627;SDS011;43451;49.060;10.616;2023-02-28T15:38:39;12.93;;;8.18;;
57627;SDS011;43451;49.060;10.616;2023-02-28T15:41:04;13.75;;;7.97;;
57627;SDS011;43451;49.060;10.616;2023-02-28T15:46:10;28.33;;;9.32;;
57627;SDS011;43451;49.060;10.616;2023-02-28T15:48:45;16.40;;;8.98;;
57627;SDS011;43451;49.060;10.616;2023-02-28T15:51:17;12.90;;;8.70;;
57627;SDS011;43451;49.060;10.616;2023-02-28T15:53:58;12.57;;;8.15;;
57627;SDS011;43451;49.060;10.616;2023-02-28T15:56:26;17.42;;;8.38;;
57627;SDS011;43451;49.060;10.616;2023-02-28T15:58:58;13.80;;;8.25;;
57627;SDS011;43451;49.060;10.616;2023-02-28T16:01:29;13.07;;;8.32;;
57627;SDS011;43451;49.060;10.616;2023-02-28T16:06:36;62.33;;;10.73;;
57627;SDS011;43451;49.060;10.616;2023-02-28T16:09:02;16.20;;;8.57;;
57627;SDS011;43451;49.060;10.616;2023-02-28T16:11:29;13.23;;;8.18;;
57627;SDS011;43451;49.060;10.616;2023-02-28T16:13:55;15.80;;;8.52;;
57627;SDS011;43451;49.060;10.616;2023-02-28T16:16:23;15.60;;;9.50;;
57627;SDS011;43451;49.060;10.616;2023-02-28T16:18:50;16.63;;;9.30;;
57627;SDS011;43451;49.060;10.616;2023-02-28T16:21:16;15.00;;;9.38;;
57627;SDS011;43451;49.060;10.616;2023-02-28T16:23:41;23.23;;;9.43;;
57627;SDS011;43451;49.060;10.616;2023-02-28T16:26:07;16.23;;;8.70;;
57627;SDS011;43451;49.060;10.616;2023-02-28T16:28:36;17.27;;;8.05;;
57627;SDS011;43451;49.060;10.616;2023-02-28T16:31:04;15.38;;;8.95;;
57627;SDS011;43451;49.060;10.616;2023-02-28T16:33:31;14.82;;;8.98;;
57627;SDS011;43451;49.060;10.616;2023-02-28T16:35:58;25.27;;;13.15;;
57627;SDS011;43451;49.060;10.616;2023-02-28T16:38:24;22.23;;;12.80;;
57627;SDS011;43451;49.060;10.616;2023-02-28T16:40:51;16.40;;;10.45;;
57627;SDS011;43451;49.060;10.616;2023-02-28T16:43:18;29.03;;;12.53;;
57627;SDS011;43451;49.060;10.616;2023-02-28T16:45:47;14.98;;;10.63;;
57627;SDS011;43451;49.060;10.616;2023-02-28T16:48:14;20.55;;;12.13;;
57627;SDS011;43451;49.060;10.616;2023-02-28T16:50:41;16.42;;;10.95;;
57627;SDS011;43451;49.060;10.616;2023-02-28T16:53:08;27.65;;;13.68;;
57627;SDS011;43451;49.060;10.616;2023-02-28T16:55:34;31.88;;;13.38;;
57627;SDS011;43451;49.060;10.616;2023-02-28T16:58:00;22.20;;;11.25;;
57627;SDS011;43451;49.060;10.616;2023-02-28T17:00:27;17.17;;;10.95;;
57627;SDS011;43451;49.060;10.616;2023-02-28T17:02:54;22.60;;;12.83;;
57627;SDS011;43451;49.060;10.616;2023-02-28T17:05:21;28.30;;;13.77;;
57627;SDS011;43451;49.060;10.616;2023-02-28T17:07:47;28.55;;;15.18;;
57627;SDS011;43451;49.060;10.616;2023-02-28T17:10:16;26.38;;;14.30;;
57627;SDS011;43451;49.060;10.616;2023-02-28T17:12:48;27.55;;;13.32;;
57627;SDS011;43451;49.060;10.616;2023-02-28T17:15:15;25.35;;;12.32;;
57627;SDS011;43451;49.060;10.616;2023-02-28T17:17:43;22.38;;;12.32;;
57627;SDS011;43451;49.060;10.616;2023-02-28T17:20:16;23.77;;;12.52;;
57627;SDS011;43451;49.060;10.616;2023-02-28T17:22:47;21.08;;;12.32;;
57627;SDS011;43451;49.060;10.616;2023-02-28T17:25:13;22.80;;;12.35;;
57627;SDS011;43451;49.060;10.616;2023-02-28T17:27:39;23.75;;;12.90;;
57627;SDS011;43451;49.060;10.616;2023-02-28T17:30:26;23.50;;;10.25;;